Latest Weather Observations for Middle Point

IDD60901

Issued at 4:51 pm CST Monday 2 March 2015 (issued every 10 minutes, with the page automatically refreshed every 10 minutes)

About weather observations | Map of Darwin area stations | Latest observations for Darwin area | Other Formats
Station Details ID: 014041 Name: MIDDLE POINT Lat: -12.61 Lon: 131.30 Height: 14.1 m
Data from the previous 72 hours. | See also: Recent months at Middle Point
Date/Time
CST
Tmp

°C
App
Tmp
°C
Dew
Point
°C
Rel
Hum
%
Delta-T

°C
Wind Press
QNH
hPa
Press
MSL
hPa
Rain
since
9 am
mm
Dir
 
Spd
km/h
Gust
km/h
Spd
kts
Gust
kts
02/04:30pm 25.4 29.0 23.8 91 1.1 N 11 17 6 9 1003.3 1003.2 1.0
02/04:00pm 25.3 28.0 23.5 90 1.2 NW 15 22 8 12 1002.9 1002.8 0.2
02/03:30pm 25.5 27.2 23.0 86 1.7 NW 19 26 10 14 1003.0 1002.9 0.2
02/03:00pm 26.8 29.0 23.3 81 2.4 NW 17 22 9 12 1003.2 1003.1 0.2
02/02:30pm 28.2 30.8 23.3 75 3.4 NW 15 22 8 12 1003.3 1003.2 0.2
02/02:00pm 31.0 36.0 25.4 72 4.0 S 9 15 5 8 1003.5 1003.4 0.2
02/01:30pm 30.3 35.3 25.4 75 3.5 SSE 9 15 5 8 1004.2 1004.1 0.2
02/01:00pm 30.9 36.3 25.5 73 3.8 SW 7 11 4 6 1004.6 1004.5 0.2
02/12:30pm 29.9 35.7 26.1 80 2.7 S 7 13 4 7 1005.1 1005.0 0.0
02/12:00pm 29.1 34.9 25.7 82 2.4 S 6 11 3 6 1005.7 1005.6 0.0
02/11:30am 29.0 34.9 25.4 81 2.5 S 4 7 2 4 1006.3 1006.2 0.0
02/11:00am 28.6 34.4 25.8 85 2.0 SSE 6 9 3 5 1006.2 1006.1 0.0
02/10:30am 28.0 33.6 25.8 88 1.6 SSE 7 9 4 5 1006.4 1006.3 0.0
02/10:00am 27.6 33.1 25.6 89 1.4 ESE 7 9 4 5 1007.0 1006.9 0.0
02/09:30am 27.2 31.8 25.4 90 1.3 ESE 11 13 6 7 1006.9 1006.8 0.0
02/09:00am 27.0 32.4 25.2 90 1.3 SE 6 7 3 4 1007.0 1006.9 3.0
02/08:30am 26.7 32.6 25.3 92 1.0 SE 4 6 2 3 1006.5 1006.4 3.0
02/08:00am 26.4 31.7 25.2 93 0.8 SE 7 9 4 5 1006.1 1006.0 3.0
02/07:30am 26.5 31.8 25.3 93 0.8 ESE 7 9 4 5 1006.0 1005.9 3.0
02/07:00am 26.5 32.0 25.3 93 0.8 E 6 7 3 4 1005.7 1005.6 3.0
02/06:30am 26.3 31.9 24.9 92 1.0 SSE 4 4 2 2 1005.3 1005.2 3.0
02/06:00am 26.3 32.7 24.9 92 1.0 CALM 0 0 0 0 1004.9 1004.8 3.0
02/05:30am 26.2 32.7 25.0 93 0.8 CALM 0 0 0 0 1004.7 1004.6 3.0
02/05:00am 26.2 31.5 25.0 93 0.8 NE 6 6 3 3 1004.7 1004.6 3.0
02/04:30am 26.1 31.6 24.7 92 1.0 NNE 4 4 2 2 1004.4 1004.3 3.0
02/04:00am 26.3 32.3 24.9 92 1.0 SE 2 2 1 1 1004.3 1004.2 3.0
02/03:30am 26.3 32.1 25.1 93 0.8 SSW 4 6 2 3 1004.3 1004.2 3.0
02/03:00am 26.1 31.2 24.7 92 1.0 W 6 6 3 3 1004.2 1004.1 3.0
02/02:30am 26.2 31.8 24.8 92 1.0 SW 4 4 2 2 1004.8 1004.7 3.0
02/02:00am 26.2 32.5 24.8 92 1.0 CALM 0 2 0 1 1005.2 1005.1 3.0
02/01:30am 26.6 32.8 25.2 92 1.0 SW 2 2 1 1 1005.8 1005.7 3.0
02/01:00am 26.6 32.7 25.0 91 1.1 SSW 2 6 1 3 1006.3 1006.2 3.0
02/12:30am 26.9 32.8 25.3 91 1.1 S 4 7 2 4 1006.9 1006.8 3.0
02/12:00am 26.9 32.2 25.3 91 1.1 S 7 9 4 5 1006.9 1006.8 3.0
 
Date/Time
CST
Tmp

°C
App
Tmp
°C
Dew
Point
°C
Rel
Hum
%
Delta-T

°C
Wind Press
QNH
hPa
Press
MSL
hPa
Rain
since
9 am
mm
Dir
 
Spd
km/h
Gust
km/h
Spd
kts
Gust
kts
01/11:30pm 26.6 32.3 25.0 91 1.1 SW 4 6 2 3 1006.7 1006.6 3.0
01/11:00pm 26.3 31.4 24.7 91 1.1 W 6 6 3 3 1006.8 1006.7 3.0
01/10:30pm 26.4 31.5 24.6 90 1.3 NW 6 6 3 3 1006.8 1006.7 3.0
01/10:00pm 26.8 32.1 25.0 90 1.3 NW 6 7 3 4 1006.7 1006.6 3.0
01/09:30pm 26.9 32.1 25.1 90 1.3 NNW 7 9 4 5 1007.1 1007.0 2.8
01/09:00pm 27.1 32.3 25.1 89 1.4 NE 7 9 4 5 1007.1 1007.0 2.0
01/08:30pm 28.0 34.5 25.0 84 2.1 CALM 0 0 0 0 1006.6 1006.5 0.2
01/08:00pm 28.0 32.9 24.4 81 2.5 WSW 6 7 3 4 1005.7 1005.6 0.2
01/07:30pm 28.3 32.5 24.1 78 2.9 NW 9 15 5 8 1005.0 1004.9 0.2
01/07:00pm 28.8 32.7 24.8 79 2.8 W 13 17 7 9 1004.6 1004.5 0.2
01/06:30pm 29.2 33.4 25.4 80 2.7 W 13 20 7 11 1004.7 1004.6 0.2
01/06:00pm 29.5 32.6 24.8 76 3.3 WNW 17 24 9 13 1003.6 1003.5 0.2
01/05:30pm 30.3 32.5 24.0 69 4.4 WNW 19 26 10 14 1003.2 1003.1 0.2
01/05:00pm 30.3 32.5 24.0 69 4.4 WNW 19 24 10 13 1003.2 1003.1 0.2
01/04:30pm 30.5 32.1 23.9 68 4.6 WNW 22 28 12 15 1003.3 1003.2 0.2
01/04:00pm 31.2 34.3 24.1 66 4.9 NW 15 22 8 12 1003.2 1003.1 0.2
01/03:30pm 31.6 34.1 24.7 67 4.9 NW 20 32 11 17 1003.4 1003.3 0.2
01/03:00pm 30.3 32.2 23.5 67 4.7 W 19 32 10 17 1004.0 1003.9 0.2
01/02:30pm 31.6 34.5 24.5 66 5.0 NNW 17 28 9 15 1003.8 1003.7 0.2
01/02:00pm 32.7 37.0 25.5 66 5.1 WNW 13 17 7 9 1004.5 1004.4 0.2
01/01:30pm 32.6 37.0 24.4 62 5.8 W 9 15 5 8 1005.0 1004.9 0.2
01/01:00pm 34.4 40.4 26.3 62 5.8 NNW 7 17 4 9 1005.5 1005.4 0.2
01/12:30pm 32.5 36.9 24.5 62 5.6 WNW 9 15 5 8 1006.3 1006.2 0.2
01/12:00pm 33.3 36.4 23.6 56 6.8 W 13 19 7 10 1006.7 1006.6 0.2
01/11:30am 32.9 36.5 24.4 61 6.0 WSW 13 20 7 11 1006.9 1006.8 0.2
01/11:00am 32.4 36.4 25.0 65 5.2 W 13 17 7 9 1007.2 1007.1 0.2
01/10:30am 32.0 36.9 25.8 69 4.4 W 11 17 6 9 1007.3 1007.2 0.2
01/10:00am 31.3 35.7 25.6 71 4.0 W 13 17 7 9 1007.4 1007.3 0.0
01/09:30am 30.3 35.7 26.0 78 3.1 W 9 15 5 8 1007.4 1007.3 0.0
01/09:00am 29.1 35.1 26.1 84 2.1 WSW 6 9 3 5 1007.6 1007.5 18.6
01/08:30am 28.5 34.8 26.5 89 1.4 SW 6 9 3 5 1007.4 1007.3 18.6
01/08:00am 27.0 33.6 25.8 93 0.8 SSW 2 6 1 3 1006.8 1006.7 18.6
01/07:30am 26.2 32.0 25.2 94 0.7 SSW 4 6 2 3 1006.3 1006.2 18.6
01/07:00am 24.9 29.8 23.7 93 0.8 SSW 4 6 2 3 1006.0 1005.9 18.6
01/06:30am 24.9 30.6 23.7 93 0.8 CALM 0 4 0 2 1005.5 1005.4 18.6
01/06:00am 24.9 30.6 23.7 93 0.8 CALM 0 2 0 1 1005.5 1005.4 18.6
01/05:30am 24.9 30.2 23.7 93 0.8 N 2 4 1 2 1005.3 1005.2 18.6
01/05:00am 25.1 30.9 23.9 93 0.8 CALM 0 0 0 0 1005.0 1004.9 18.6
01/04:30am 25.2 30.3 24.0 93 0.8 WNW 4 4 2 2 1004.9 1004.8 18.6
01/04:00am 24.8 30.4 23.6 93 0.8 CALM 0 0 0 0 1005.1 1005.0 18.6
01/03:30am 25.2 31.0 24.0 93 0.8 CALM 0 0 0 0 1005.2 1005.1 18.6
01/03:00am 25.1 30.1 23.9 93 0.8 NNW 4 6 2 3 1005.8 1005.7 18.6
01/02:30am 25.1 30.5 23.9 93 0.8 W 2 2 1 1 1005.7 1005.6 18.6
01/02:00am 25.0 30.0 23.8 93 0.8 W 4 6 2 3 1006.1 1006.0 18.4
01/01:30am 24.7 29.1 23.5 93 0.8 WNW 6 6 3 3 1006.3 1006.2 18.4
01/01:00am 24.6 29.7 23.4 93 0.8 W 2 2 1 1 1006.4 1006.3 18.4
01/12:30am 24.5 29.9 23.3 93 0.8 CALM 0 0 0 0 1006.8 1006.7 18.4
01/12:00am 24.7 30.3 23.5 93 0.8 CALM 0 0 0 0 1007.5 1007.4 18.4
 
Date/Time
CST
Tmp

°C
App
Tmp
°C
Dew
Point
°C
Rel
Hum
%
Delta-T

°C
Wind Press
QNH
hPa
Press
MSL
hPa
Rain
since
9 am
mm
Dir
 
Spd
km/h
Gust
km/h
Spd
kts
Gust
kts
28/11:30pm 24.5 29.4 23.1 92 0.9 WNW 2 4 1 2 1008.0 1007.9 18.4
28/11:00pm 24.5 28.8 23.3 93 0.8 NNW 6 6 3 3 1007.8 1007.7 18.4
28/10:30pm 24.3 28.9 23.1 93 0.8 WNW 4 4 2 2 1007.7 1007.6 18.4
28/10:00pm 24.3 28.5 23.1 93 0.8 NW 6 7 3 4 1007.6 1007.5 18.4
28/09:30pm 24.3 29.6 23.1 93 0.8 CALM 0 0 0 0 1007.2 1007.1 18.4
28/09:00pm 24.4 29.8 23.2 93 0.8 CALM 0 0 0 0 1006.5 1006.4 18.4
28/08:30pm 24.2 29.5 23.0 93 0.8 CALM 0 2 0 1 1005.7 1005.6 18.4
28/08:00pm 24.3 29.6 23.1 93 0.8 CALM 0 2 0 1 1005.1 1005.0 18.4
28/07:30pm 24.0 28.4 22.8 93 0.8 WNW 4 6 2 3 1004.8 1004.7 18.4
28/07:00pm 23.9 27.6 22.5 92 0.9 NNW 7 13 4 7 1004.7 1004.6 18.4
28/06:30pm 23.7 25.1 22.5 93 0.8 NNW 19 30 10 16 1005.3 1005.2 17.8
28/06:00pm 23.8 24.7 21.9 89 1.3 SSE 20 33 11 18 1006.7 1006.6 6.6
28/05:55pm 24.4 24.4 21.7 85 1.8 S 24 37 13 20 1006.2 1006.1 2.0
28/05:30pm 29.1 30.1 22.8 69 4.3 WSW 22 33 12 18 1004.2 1004.1 0.0
28/05:00pm 32.9 34.8 23.5 57 6.5 WNW 19 26 10 14 1003.8 1003.7 0.0
28/04:30pm 34.0 37.0 24.6 58 6.6 WNW 17 22 9 12 1004.1 1004.0 0.0
28/04:00pm 33.9 35.9 23.6 55 7.2 WNW 19 24 10 13 1004.1 1004.0 0.0
28/03:30pm 33.6 36.1 24.5 59 6.4 WNW 19 26 10 14 1004.2 1004.1 0.0
28/03:00pm 33.7 37.1 24.0 57 6.8 WNW 13 20 7 11 1004.4 1004.3 0.0
28/02:30pm 34.5 37.6 23.5 52 7.7 WNW 13 20 7 11 1005.0 1004.9 0.0
28/02:00pm 32.9 36.1 23.0 56 6.8 WSW 11 19 6 10 1005.8 1005.7 0.0
28/01:30pm 33.4 37.3 24.3 59 6.4 WNW 11 19 6 10 1006.2 1006.1 0.0
28/01:00pm 32.7 34.9 23.3 57 6.5 WNW 17 24 9 13 1006.6 1006.5 0.0
28/12:30pm 32.1 35.3 24.4 63 5.4 WNW 15 22 8 12 1007.0 1006.9 0.0
28/12:00pm 32.0 35.7 24.6 65 5.2 WNW 13 19 7 10 1007.3 1007.2 0.0
28/11:30am 31.2 35.4 24.8 69 4.5 WNW 11 19 6 10 1007.4 1007.3 0.0
28/11:00am 30.5 35.4 24.6 70 4.1 W 7 13 4 7 1007.7 1007.6 0.0
28/10:30am 28.5 33.0 23.6 75 3.4 WSW 6 9 3 5 1007.8 1007.7 0.0
28/10:00am 28.3 33.8 24.1 78 2.9 SW 2 6 1 3 1007.6 1007.5 0.0
28/09:30am 26.7 31.1 23.4 82 2.3 SSW 6 7 3 4 1007.7 1007.6 0.0
28/09:00am 26.5 30.9 23.4 83 2.1 SSW 6 9 3 5 1007.6 1007.5 1.4
28/08:30am 25.5 30.2 22.6 84 2.0 SW 2 4 1 2 1007.4 1007.3 1.4
28/08:00am 24.7 28.7 22.8 89 1.3 SSE 6 7 3 4 1007.3 1007.2 1.4
28/07:30am 24.2 28.1 22.5 90 1.1 SW 6 9 3 5 1006.9 1006.8 1.4
28/07:00am 24.0 26.9 22.4 91 1.1 WSW 11 17 6 9 1006.7 1006.6 1.4
28/06:30am 24.1 27.8 22.5 91 1.1 WSW 7 9 4 5 1006.4 1006.3 1.4
28/06:00am 24.2 27.9 22.6 91 1.1 W 7 9 4 5 1006.6 1006.5 1.4
28/05:30am 24.3 28.3 22.7 91 1.1 WNW 6 7 3 4 1006.6 1006.5 1.2
28/05:00am 24.1 27.4 22.5 91 1.1 NW 9 11 5 6 1006.6 1006.5 1.2
28/04:30am 24.2 27.9 22.5 90 1.1 NW 7 9 4 5 1006.2 1006.1 1.2
28/04:00am 24.4 28.2 22.7 90 1.1 W 7 11 4 6 1006.6 1006.5 1.2
28/03:30am 24.6 28.6 22.8 90 1.2 WNW 6 9 3 5 1006.8 1006.7 1.2
28/03:00am 25.2 28.2 23.4 90 1.2 NW 13 20 7 11 1006.8 1006.7 1.2
28/02:30am 25.8 29.8 24.4 92 1.0 NNW 11 17 6 9 1006.8 1006.7 1.2
28/02:00am 25.9 30.5 24.7 93 0.8 NNW 9 15 5 8 1006.5 1006.4 1.2
28/01:30am 25.9 30.8 24.7 93 0.8 NNW 7 9 4 5 1006.9 1006.8 1.2
28/01:00am 25.8 30.7 24.6 93 0.8 N 7 9 4 5 1007.4 1007.3 1.2
28/12:30am 25.9 31.0 24.7 93 0.8 NW 6 7 3 4 1007.5 1007.4 1.2
28/12:00am 26.0 32.2 24.6 92 1.0 CALM 0 4 0 2 1007.7 1007.6 1.2
 
Date/Time
CST
Tmp

°C
App
Tmp
°C
Dew
Point
°C
Rel
Hum
%
Delta-T

°C
Wind Press
QNH
hPa
Press
MSL
hPa
Rain
since
9 am
mm
Dir
 
Spd
km/h
Gust
km/h
Spd
kts
Gust
kts
27/11:30pm 26.2 31.4 24.8 92 1.0 ENE 6 7 3 4 1008.5 1008.4 1.2
27/11:00pm 26.3 31.9 24.9 92 1.0 ENE 4 6 2 3 1009.2 1009.1 1.2
27/10:30pm 26.3 31.9 24.9 92 1.0 ENE 4 6 2 3 1009.2 1009.1 1.2
27/10:00pm 26.3 31.9 24.9 92 1.0 E 4 6 2 3 1008.9 1008.8 1.2
27/09:30pm 26.2 31.8 24.8 92 1.0 NE 4 6 2 3 1008.7 1008.6 1.2
27/09:00pm 26.0 31.1 24.6 92 1.0 N 6 7 3 4 1007.8 1007.7 1.0
27/08:30pm 25.9 31.5 24.3 91 1.1 N 2 2 1 1 1007.5 1007.4 1.0
27/08:00pm 25.7 31.2 24.1 91 1.1 N 2 4 1 2 1007.3 1007.2 1.0
27/07:30pm 25.6 30.0 23.8 90 1.2 N 7 9 4 5 1006.8 1006.7 0.8
27/07:00pm 25.6 30.0 23.8 90 1.2 N 7 11 4 6 1006.4 1006.3 0.8
27/06:30pm 25.6 30.2 23.8 90 1.2 N 6 9 3 5 1005.8 1005.7 0.8
27/06:00pm 25.6 31.3 23.7 89 1.3 CALM 0 4 0 2 1005.2 1005.1 0.8
27/05:30pm 25.6 30.5 23.7 89 1.3 NNW 4 7 2 4 1005.1 1005.0 0.6
27/05:00pm 25.1 30.1 23.2 89 1.3 W 2 4 1 2 1004.7 1004.6 0.6

Latest Capital City Observations: Canberra | Sydney | Melbourne | Brisbane | Adelaide | Perth | Hobart | Darwin

Other Formats:

Comma delimited format used in spreadsheet applications
http://www.bom.gov.au/fwo/IDD60901/IDD60901.95121.axf

JavaScript Object Notation format (JSON) in row-major order
http://www.bom.gov.au/fwo/IDD60901/IDD60901.95121.json